Time;durP1;ratioP1;P1;durP2;ratioP2;P2;SDS_P1;SDS_P2;PMS_P1;PMS_P2;Temp;Humidity;BMP_temperature;BMP_pressure;BME280_temperature;BME280_humidity;BME280_pressure;Samples;Min_cycle;Max_cycle;Signal;HPM_P1;HPM_P2
2023/03/27 00:00:58;;;;;;;1.42;0.20;;;19.70;67.60;;;;;;4953705;28;20130;-70
2023/03/27 00:03:26;;;;;;;1.88;0.68;;;19.70;67.50;;;;;;4966823;28;20062;-70
2023/03/27 00:06:00;;;;;;;1.67;0.13;;;19.80;67.40;;;;;;4971429;28;20058;-70
2023/03/27 00:08:30;;;;;;;1.02;0.20;;;19.90;67.30;;;;;;4971955;28;20574;-70
2023/03/27 00:10:58;;;;;;;1.52;0.70;;;19.90;67.10;;;;;;4972045;28;20121;-70
2023/03/27 00:13:25;;;;;;;2.17;0.85;;;20.00;67.00;;;;;;4972023;28;20832;-70
2023/03/27 00:15:54;;;;;;;1.35;0.68;;;20.10;66.90;;;;;;4980272;28;20066;-70
2023/03/27 00:18:21;;;;;;;1.25;0.40;;;20.20;66.80;;;;;;4968910;28;20066;-70
2023/03/27 00:20:48;;;;;;;1.40;0.60;;;20.20;67.20;;;;;;4971626;28;20094;-71
2023/03/27 00:23:15;;;;;;;1.58;0.45;;;20.20;66.50;;;;;;4970413;28;20205;-70
2023/03/27 00:25:45;;;;;;;1.58;0.80;;;20.30;66.50;;;;;;4971314;28;20427;-70
2023/03/27 00:28:12;;;;;;;2.05;0.80;;;20.20;66.50;;;;;;4962307;28;20134;-70
2023/03/27 00:30:40;;;;;;;1.40;0.55;;;20.20;66.40;;;;;;4969018;28;20062;-71
2023/03/27 00:33:09;;;;;;;2.83;0.10;;;20.20;66.40;;;;;;4970380;28;20051;-70
2023/03/27 00:35:35;;;;;;;1.73;0.63;;;20.20;66.40;;;;;;4970121;28;20076;-70
2023/03/27 00:38:03;;;;;;;2.45;0.98;;;20.20;66.40;;;;;;4952705;28;20052;-70
2023/03/27 00:40:31;;;;;;;0.65;0.10;;;20.20;66.50;;;;;;4951687;29;20062;-71
2023/03/27 00:42:59;;;;;;;2.25;0.77;;;20.10;66.50;;;;;;4952515;28;20051;-70
2023/03/27 00:45:29;;;;;;;0.98;0.20;;;20.10;66.50;;;;;;4959224;28;20055;-70
2023/03/27 00:47:59;;;;;;;1.85;0.57;;;20.10;66.50;;;;;;4970220;28;20047;-70
2023/03/27 00:50:27;;;;;;;;;;;20.10;66.60;;;;;;4972295;28;20046;-70
2023/03/27 00:52:58;;;;;;;1.20;0.10;;;20.00;66.50;;;;;;4975779;28;19926;-70
2023/03/27 00:55:29;;;;;;;1.63;0.40;;;20.00;66.60;;;;;;4970561;28;20519;-71
2023/03/27 00:58:01;;;;;;;1.35;0.63;;;19.90;66.60;;;;;;4971222;28;20058;-71
2023/03/27 01:00:28;;;;;;;1.65;0.60;;;19.90;67.20;;;;;;4969251;28;20058;-70
2023/03/27 01:02:55;;;;;;;2.00;0.65;;;19.90;66.60;;;;;;4968364;28;20051;-70
2023/03/27 01:05:22;;;;;;;1.15;0.63;;;19.80;67.20;;;;;;4969930;28;20050;-71
2023/03/27 01:07:51;;;;;;;1.63;0.75;;;19.80;66.70;;;;;;4969436;28;20047;-70
2023/03/27 01:10:18;;;;;;;1.48;0.80;;;19.70;66.70;;;;;;4969799;28;20161;-71
2023/03/27 01:12:59;;;;;;;2.00;0.82;;;19.70;66.70;;;;;;4969892;28;20053;-70
2023/03/27 01:15:37;;;;;;;1.55;0.55;;;19.70;66.80;;;;;;4971022;28;20403;-71
2023/03/27 01:18:24;;;;;;;1.58;0.60;;;19.60;66.80;;;;;;4970956;28;20069;-70
2023/03/27 01:21:36;;;;;;;0.77;0.20;;;19.60;66.80;;;;;;4951180;29;20102;-71
2023/03/27 01:24:28;;;;;;;2.55;0.68;;;19.50;66.80;;;;;;4969802;28;20400;-71
2023/03/27 01:27:01;;;;;;;1.15;0.40;;;19.50;66.90;;;;;;4970391;28;20568;-71
2023/03/27 01:30:00;;;;;;;1.23;0.70;;;19.50;67.00;;;;;;4950976;29;20063;-70
2023/03/27 01:33:18;;;;;;;1.65;0.77;;;19.40;67.00;;;;;;4953893;28;20137;-70
2023/03/27 01:36:21;;;;;;;1.92;0.77;;;19.40;67.00;;;;;;4921393;28;20113;-71
2023/03/27 01:39:22;;;;;;;0.63;0.13;;;19.30;67.00;;;;;;4970186;28;20160;-70
2023/03/27 01:41:56;;;;;;;2.92;0.65;;;19.30;67.00;;;;;;4975651;28;20062;-70
2023/03/27 01:44:33;;;;;;;2.25;0.80;;;19.30;67.60;;;;;;4970665;28;20061;-70
2023/03/27 01:47:07;;;;;;;1.73;0.80;;;19.30;67.00;;;;;;4986118;28;20070;-70
2023/03/27 01:49:38;;;;;;;1.83;0.70;;;19.30;67.00;;;;;;4971306;28;20082;-70
2023/03/27 01:52:10;;;;;;;3.55;0.93;;;19.30;66.90;;;;;;4974812;28;20089;-70
2023/03/27 01:54:42;;;;;;;1.50;0.52;;;19.40;67.00;;;;;;4989691;28;20090;-70
2023/03/27 01:57:16;;;;;;;1.42;0.80;;;19.40;66.90;;;;;;4973798;28;20101;-70
2023/03/27 01:59:46;;;;;;;1.90;0.65;;;19.50;66.80;;;;;;4974259;28;20046;-70
2023/03/27 02:02:19;;;;;;;1.38;0.45;;;19.50;66.70;;;;;;4988983;28;20042;-70
2023/03/27 02:04:52;;;;;;;1.23;0.50;;;19.50;66.60;;;;;;4990136;28;20062;-70
2023/03/27 02:07:25;;;;;;;1.55;0.10;;;19.60;66.50;;;;;;4974909;28;20502;-71
2023/03/27 02:09:58;;;;;;;1.20;0.60;;;19.60;66.40;;;;;;4969807;28;20062;-70
2023/03/27 02:12:29;;;;;;;1.40;0.17;;;19.70;66.30;;;;;;4971313;28;20130;-70
2023/03/27 02:15:00;;;;;;;1.60;0.73;;;19.70;66.10;;;;;;4977013;28;20066;-71
2023/03/27 02:17:28;;;;;;;1.42;0.88;;;19.80;66.60;;;;;;4968380;28;20062;-71
2023/03/27 02:20:08;;;;;;;1.92;0.98;;;19.90;66.00;;;;;;4967846;28;20058;-70
2023/03/27 02:22:35;;;;;;;1.80;0.40;;;19.90;65.80;;;;;;4987272;28;20046;-70
2023/03/27 02:25:04;;;;;;;0.90;0.10;;;20.00;65.70;;;;;;4977724;28;20110;-70
2023/03/27 02:27:39;;;;;;;0.93;0.10;;;20.10;65.50;;;;;;4978007;28;20055;-70
2023/03/27 02:30:15;;;;;;;1.30;0.10;;;20.20;65.50;;;;;;4988417;28;20051;-70
2023/03/27 02:32:48;;;;;;;1.50;0.57;;;20.10;65.30;;;;;;4973098;28;20055;-70
2023/03/27 02:35:28;;;;;;;1.63;0.60;;;20.20;65.30;;;;;;4973955;28;20039;-70
2023/03/27 02:38:04;;;;;;;1.95;0.75;;;20.20;65.20;;;;;;4978656;28;20057;-70
2023/03/27 02:40:45;;;;;;;1.08;0.65;;;20.20;65.10;;;;;;4973652;28;20051;-70
2023/03/27 02:43:18;;;;;;;2.38;0.80;;;20.20;65.00;;;;;;4972953;28;20595;-70
2023/03/27 02:45:52;;;;;;;1.25;0.20;;;20.20;65.10;;;;;;4973447;28;20046;-70
2023/03/27 02:48:28;;;;;;;0.70;0.10;;;20.10;65.00;;;;;;4973309;28;20050;-71
2023/03/27 02:50:59;;;;;;;1.63;0.85;;;20.20;65.10;;;;;;4972281;28;20134;-70
2023/03/27 02:53:30;;;;;;;1.05;0.50;;;20.10;65.10;;;;;;4972529;28;20062;-70
2023/03/27 02:56:02;;;;;;;1.42;0.52;;;20.00;65.10;;;;;;4973477;28;20490;-70
2023/03/27 02:58:34;;;;;;;1.73;0.50;;;20.00;65.10;;;;;;4972395;28;20050;-71
2023/03/27 03:01:02;;;;;;;1.45;0.10;;;20.00;65.80;;;;;;4987592;28;20526;-70
2023/03/27 03:03:36;;;;;;;0.90;0.10;;;20.00;65.20;;;;;;4973944;28;20063;-70
2023/03/27 03:06:06;;;;;;;1.15;0.57;;;19.90;65.10;;;;;;4973673;28;20086;-71
2023/03/27 03:08:37;;;;;;;1.02;0.10;;;19.90;65.20;;;;;;4971017;28;20085;-70
2023/03/27 03:11:08;;;;;;;1.52;0.10;;;19.80;65.10;;;;;;4988353;28;20062;-70
2023/03/27 03:13:35;;;;;;;1.25;0.20;;;19.80;65.20;;;;;;4973139;28;20539;-70
2023/03/27 03:16:03;;;;;;;1.73;0.70;;;19.70;65.20;;;;;;4981285;28;20054;-70
2023/03/27 03:18:30;;;;;;;0.80;0.10;;;19.70;65.30;;;;;;4971692;28;20077;-71
2023/03/27 03:20:57;;;;;;;1.60;0.63;;;19.60;65.30;;;;;;4982883;28;20063;-70
2023/03/27 03:23:24;;;;;;;1.55;0.10;;;19.60;65.30;;;;;;4969048;28;20055;-70
2023/03/27 03:25:55;;;;;;;1.85;0.47;;;19.60;65.40;;;;;;4968501;28;20471;-71
2023/03/27 03:28:24;;;;;;;0.68;0.10;;;19.50;65.30;;;;;;4971997;28;20042;-70
2023/03/27 03:30:52;;;;;;;;;;;19.50;65.50;;;;;;4972588;28;20063;-70
2023/03/27 03:33:20;;;;;;;1.00;0.20;;;19.50;65.40;;;;;;4971903;28;19980;-70
2023/03/27 03:35:47;;;;;;;2.25;0.52;;;19.40;65.50;;;;;;4973039;28;20062;-70
2023/03/27 03:38:23;;;;;;;0.50;0.10;;;19.40;65.50;;;;;;4978399;28;20051;-70
2023/03/27 03:40:54;;;;;;;1.42;0.47;;;19.30;65.50;;;;;;4972761;28;20834;-70
2023/03/27 03:43:24;;;;;;;1.25;0.55;;;19.30;65.50;;;;;;4971480;28;20062;-71
2023/03/27 03:45:51;;;;;;;;;;;19.30;65.50;;;;;;4958218;28;20583;-70
2023/03/27 03:48:19;;;;;;;1.23;0.35;;;19.30;65.20;;;;;;4959833;28;19922;-70
2023/03/27 03:50:47;;;;;;;1.67;0.50;;;19.30;65.40;;;;;;4972975;28;20054;-70
2023/03/27 03:53:14;;;;;;;1.05;0.60;;;19.30;65.30;;;;;;4972863;28;20035;-70
2023/03/27 03:55:42;;;;;;;0.82;0.10;;;19.30;65.30;;;;;;4972677;28;20511;-70
2023/03/27 03:58:09;;;;;;;1.48;0.20;;;19.40;65.30;;;;;;4969090;28;20050;-71
2023/03/27 04:00:39;;;;;;;0.93;0.10;;;19.40;65.20;;;;;;4971471;28;20138;-71
2023/03/27 04:03:07;;;;;;;1.00;0.20;;;19.50;65.20;;;;;;4972731;28;20046;-71
2023/03/27 04:05:36;;;;;;;1.30;0.63;;;19.50;65.10;;;;;;4972610;28;20086;-70
2023/03/27 04:08:05;;;;;;;2.17;0.45;;;19.50;64.90;;;;;;4972194;28;20114;-70
2023/03/27 04:10:33;;;;;;;1.23;0.20;;;19.60;64.90;;;;;;4971070;28;20142;-71
2023/03/27 04:13:00;;;;;;;3.15;0.20;;;19.60;64.80;;;;;;4970627;28;20047;-70
2023/03/27 04:15:27;;;;;;;1.80;0.65;;;19.70;64.70;;;;;;4977792;28;20043;-70
2023/03/27 04:17:56;;;;;;;1.48;0.82;;;19.80;64.50;;;;;;4970976;28;20054;-70
2023/03/27 04:20:25;;;;;;;0.80;0.10;;;19.80;64.40;;;;;;4964202;28;20076;-70
2023/03/27 04:22:53;;;;;;;1.55;0.45;;;19.80;64.20;;;;;;4966923;28;20055;-70
2023/03/27 04:25:22;;;;;;;1.48;0.63;;;20.00;64.80;;;;;;4971426;28;20133;-70
2023/03/27 04:27:51;;;;;;;1.33;0.52;;;20.00;64.10;;;;;;4970681;28;20393;-70
2023/03/27 04:30:21;;;;;;;1.15;0.60;;;20.10;64.00;;;;;;4975267;28;20134;-70
2023/03/27 04:32:49;;;;;;;1.88;0.68;;;20.10;63.80;;;;;;4991885;28;20051;-70
2023/03/27 04:35:18;;;;;;;1.65;0.10;;;20.20;63.70;;;;;;4981855;28;20062;-70
2023/03/27 04:37:45;;;;;;;1.45;0.50;;;20.20;63.60;;;;;;4971381;28;20051;-70
2023/03/27 04:40:16;;;;;;;1.70;0.38;;;20.20;63.50;;;;;;4971319;28;20054;-70
2023/03/27 04:42:44;;;;;;;2.40;0.10;;;20.20;63.50;;;;;;4976562;28;20156;-70
2023/03/27 04:45:13;;;;;;;1.45;0.40;;;20.20;64.00;;;;;;4984194;28;20046;-71
2023/03/27 04:47:41;;;;;;;1.15;0.55;;;20.20;63.40;;;;;;4971594;28;20061;-70
2023/03/27 04:50:10;;;;;;;0.98;0.50;;;20.20;63.40;;;;;;4985320;28;20066;-71
2023/03/27 04:52:38;;;;;;;2.28;0.73;;;20.20;63.50;;;;;;4957901;28;20047;-71
2023/03/27 04:55:07;;;;;;;1.15;0.10;;;20.10;63.40;;;;;;4965534;28;20059;-70
2023/03/27 04:57:34;;;;;;;1.00;0.52;;;20.10;63.50;;;;;;4971372;28;20467;-71
2023/03/27 05:00:12;;;;;;;1.20;0.80;;;20.10;63.50;;;;;;4970567;28;20054;-70
2023/03/27 05:02:40;;;;;;;1.35;0.43;;;20.10;63.60;;;;;;4971283;28;20050;-70
2023/03/27 05:05:08;;;;;;;2.08;0.50;;;20.00;63.60;;;;;;4971172;28;20057;-70
2023/03/27 05:07:35;;;;;;;2.45;0.70;;;20.00;63.70;;;;;;4967168;28;20069;-70
2023/03/27 05:10:04;;;;;;;1.05;0.20;;;19.90;63.60;;;;;;4966831;28;20059;-70
2023/03/27 05:12:31;;;;;;;2.25;0.70;;;19.90;63.70;;;;;;4972492;28;20065;-70
2023/03/27 05:15:01;;;;;;;1.27;0.55;;;19.90;63.70;;;;;;4967685;28;20052;-70
2023/03/27 05:17:28;;;;;;;1.23;0.10;;;19.80;63.70;;;;;;4966167;28;20051;-70
2023/03/27 05:19:55;;;;;;;1.25;0.88;;;19.80;63.80;;;;;;4968037;28;20057;-71
2023/03/27 05:28:41;;;;;;;1.10;0.10;;;19.60;63.90;;;;;;5245000;23;20069;-81
2023/03/27 05:31:09;;;;;;;0.93;0.10;;;19.60;64.00;;;;;;5000397;28;20209;-81
2023/03/27 05:33:36;;;;;;;1.15;0.45;;;19.60;64.00;;;;;;5006401;28;20054;-81
2023/03/27 05:36:04;;;;;;;1.42;0.10;;;19.50;64.00;;;;;;5012081;28;20045;-80
2023/03/27 05:38:32;;;;;;;1.05;0.70;;;19.50;64.10;;;;;;5005111;28;20057;-81
2023/03/27 05:40:59;;;;;;;1.83;0.60;;;19.50;64.80;;;;;;4996832;28;20058;-81
2023/03/27 05:43:26;;;;;;;2.15;0.95;;;19.40;64.20;;;;;;5007163;28;20121;-80
2023/03/27 05:45:54;;;;;;;1.77;0.52;;;19.40;64.20;;;;;;4992023;28;20050;-78
2023/03/27 05:48:21;;;;;;;0.43;0.10;;;19.40;64.10;;;;;;4992488;28;20057;-78
2023/03/27 05:50:48;;;;;;;2.80;0.68;;;19.40;64.10;;;;;;5010315;28;20053;-78
2023/03/27 05:53:15;;;;;;;0.82;0.10;;;19.40;64.10;;;;;;4991794;28;20061;-77
2023/03/27 05:55:42;;;;;;;1.15;0.55;;;19.40;64.00;;;;;;4992600;28;20057;-77
2023/03/27 05:58:12;;;;;;;1.20;0.10;;;19.40;64.00;;;;;;5009264;28;20050;-78
2023/03/27 06:00:41;;;;;;;1.58;0.73;;;19.50;64.00;;;;;;5008131;28;20054;-77
2023/03/27 06:03:12;;;;;;;0.70;0.20;;;19.40;63.90;;;;;;5006516;28;20057;-79
2023/03/27 06:05:40;;;;;;;2.00;0.65;;;19.50;64.40;;;;;;5003934;28;20060;-78
2023/03/27 06:08:09;;;;;;;0.73;0.10;;;19.60;63.80;;;;;;5006341;28;20084;-76
2023/03/27 06:10:36;;;;;;;;;;;19.60;63.70;;;;;;4988253;28;20062;-81
2023/03/27 06:13:07;;;;;;;2.50;0.20;;;19.80;63.90;;;;;;4994666;28;19930;-75
2023/03/27 06:15:35;;;;;;;2.13;0.52;;;20.00;63.20;;;;;;5008837;28;20057;-75
2023/03/27 06:18:01;;;;;;;1.45;0.60;;;20.40;62.90;;;;;;5007375;28;20052;-75
2023/03/27 06:20:30;;;;;;;0.82;0.10;;;20.80;62.40;;;;;;5009035;28;20070;-76
2023/03/27 06:22:59;;;;;;;2.40;0.55;;;21.10;62.60;;;;;;5005946;28;20414;-73
2023/03/27 06:25:30;;;;;;;1.60;0.68;;;21.30;61.70;;;;;;5008692;28;20041;-75
2023/03/27 06:27:58;;;;;;;2.45;0.20;;;21.20;61.70;;;;;;4991142;28;20089;-83
2023/03/27 06:30:26;;;;;;;0.93;0.15;;;21.10;62.00;;;;;;4998857;28;20049;-78
2023/03/27 06:32:56;;;;;;;1.48;0.50;;;21.10;62.20;;;;;;4999560;28;20065;-77
2023/03/27 06:35:23;;;;;;;2.13;0.75;;;21.00;63.10;;;;;;4998742;28;20049;-77
2023/03/27 06:37:52;;;;;;;1.65;0.30;;;20.90;62.80;;;;;;5010735;28;20077;-77
2023/03/27 06:40:21;;;;;;;1.63;0.20;;;20.90;63.00;;;;;;4995236;28;20045;-77
2023/03/27 06:42:52;;;;;;;1.25;0.80;;;20.80;63.10;;;;;;5023891;28;20057;-77
2023/03/27 06:45:19;;;;;;;1.38;0.50;;;20.80;63.40;;;;;;5004587;28;20046;-77
2023/03/27 06:47:50;;;;;;;1.63;0.55;;;20.70;63.40;;;;;;5006182;28;20065;-77
2023/03/27 06:50:18;;;;;;;2.25;0.75;;;20.70;63.50;;;;;;5007060;28;21052;-77
2023/03/27 06:52:47;;;;;;;1.40;0.60;;;20.70;63.70;;;;;;5010834;28;20046;-76
2023/03/27 06:55:16;;;;;;;1.48;0.40;;;20.60;63.70;;;;;;5009448;28;20725;-73
2023/03/27 06:57:43;;;;;;;2.15;0.70;;;20.60;63.70;;;;;;5008599;28;20049;-74
2023/03/27 07:00:13;;;;;;;1.30;0.60;;;20.50;63.80;;;;;;5011299;28;20058;-74
2023/03/27 07:02:41;;;;;;;1.00;0.50;;;20.40;63.90;;;;;;5007440;28;20053;-74
2023/03/27 07:05:09;;;;;;;0.98;0.65;;;20.40;64.00;;;;;;5008880;28;20053;-77
2023/03/27 07:07:36;;;;;;;1.05;0.20;;;20.40;64.10;;;;;;5006859;28;20064;-74
2023/03/27 07:10:03;;;;;;;1.40;0.10;;;20.30;64.10;;;;;;4990587;28;20042;-74
2023/03/27 07:12:32;;;;;;;0.80;0.20;;;20.30;64.20;;;;;;4992836;28;20173;-74
2023/03/27 07:14:59;;;;;;;2.42;0.80;;;20.30;64.30;;;;;;5009339;28;20053;-74
2023/03/27 07:17:26;;;;;;;0.90;0.52;;;20.20;64.30;;;;;;5011056;28;20054;-74
2023/03/27 07:19:53;;;;;;;1.42;0.10;;;20.20;64.30;;;;;;5007879;28;20528;-75
2023/03/27 07:22:20;;;;;;;1.63;0.52;;;20.20;64.40;;;;;;5009273;28;20790;-74
2023/03/27 07:24:47;;;;;;;1.40;0.50;;;20.20;64.40;;;;;;5009726;28;20080;-74
2023/03/27 07:27:15;;;;;;;0.90;0.10;;;20.10;64.30;;;;;;4990604;28;20721;-75
2023/03/27 07:29:43;;;;;;;1.70;0.70;;;20.10;64.40;;;;;;5010614;28;20056;-75
2023/03/27 07:32:10;;;;;;;1.52;0.60;;;20.10;64.30;;;;;;5011232;28;20046;-74
2023/03/27 07:34:37;;;;;;;1.20;0.55;;;20.10;64.30;;;;;;4990841;28;20065;-75
2023/03/27 07:37:04;;;;;;;2.20;0.10;;;20.10;64.30;;;;;;5008312;28;20038;-75
2023/03/27 07:39:31;;;;;;;4.13;0.63;;;20.10;64.30;;;;;;4992344;28;20054;-75
2023/03/27 07:41:58;;;;;;;1.58;0.45;;;20.10;64.30;;;;;;5011209;28;20453;-75
2023/03/27 07:44:25;;;;;;;1.60;0.63;;;20.00;64.30;;;;;;5012827;28;20057;-75
2023/03/27 07:46:53;;;;;;;1.88;0.68;;;20.00;64.20;;;;;;5011580;28;20061;-74
2023/03/27 07:49:20;;;;;;;1.45;0.60;;;20.10;64.20;;;;;;5012524;28;20053;-74
2023/03/27 07:51:47;;;;;;;1.02;0.43;;;20.00;64.20;;;;;;4994885;28;20426;-75
2023/03/27 07:54:15;;;;;;;2.65;0.80;;;20.00;64.20;;;;;;4994492;28;20045;-75
2023/03/27 07:56:42;;;;;;;0.98;0.10;;;19.90;64.20;;;;;;5012329;28;20173;-74
2023/03/27 07:59:10;;;;;;;1.77;0.45;;;19.90;64.20;;;;;;5012168;28;20513;-75
2023/03/27 08:01:37;;;;;;;2.42;0.60;;;20.00;64.20;;;;;;5012092;28;20041;-74
2023/03/27 08:04:05;;;;;;;1.77;0.85;;;19.90;64.20;;;;;;5012294;28;20054;-74
2023/03/27 08:06:32;;;;;;;1.75;0.60;;;19.90;64.10;;;;;;5011856;28;20057;-75
2023/03/27 08:08:59;;;;;;;1.88;0.70;;;19.90;64.70;;;;;;4994638;28;20053;-75
2023/03/27 08:11:26;;;;;;;1.02;0.10;;;20.00;64.10;;;;;;5012175;28;20046;-75
2023/03/27 08:13:53;;;;;;;1.92;0.60;;;19.90;64.00;;;;;;4994446;28;20060;-75
2023/03/27 08:16:20;;;;;;;0.45;0.10;;;19.90;64.00;;;;;;4994397;28;20490;-75
2023/03/27 08:18:48;;;;;;;1.15;0.68;;;19.90;63.90;;;;;;5004215;28;20061;-75
2023/03/27 08:21:17;;;;;;;2.45;0.20;;;19.90;63.90;;;;;;4974552;28;20093;-75
2023/03/27 08:23:44;;;;;;;1.50;0.60;;;19.90;63.80;;;;;;4974561;28;20108;-75
2023/03/27 08:26:12;;;;;;;3.88;0.30;;;19.90;63.80;;;;;;4974587;28;20050;-75
2023/03/27 08:28:40;;;;;;;1.77;0.65;;;19.90;63.80;;;;;;4974382;28;20418;-75
2023/03/27 08:31:12;;;;;;;1.83;0.03;;;19.90;63.70;;;;;;4992169;28;20054;-75
2023/03/27 08:33:40;;;;;;;2.90;0.73;;;19.90;63.70;;;;;;4974512;28;20101;-75
2023/03/27 08:36:08;;;;;;;1.95;0.82;;;19.90;63.70;;;;;;4992002;28;20051;-75
2023/03/27 08:38:38;;;;;;;1.40;0.60;;;19.90;63.60;;;;;;4991908;28;20050;-75
2023/03/27 08:41:06;;;;;;;1.73;0.10;;;19.90;64.20;;;;;;4991737;28;20046;-75
2023/03/27 08:43:37;;;;;;;1.30;0.13;;;19.90;63.60;;;;;;4991684;28;20054;-75
2023/03/27 08:46:16;;;;;;;2.08;0.57;;;19.90;63.60;;;;;;4974267;28;20088;-76
2023/03/27 08:48:48;;;;;;;2.53;0.20;;;19.90;63.50;;;;;;4973845;28;20072;-76
2023/03/27 08:51:19;;;;;;;1.50;0.68;;;19.90;63.50;;;;;;4973929;28;20054;-76
2023/03/27 08:53:53;;;;;;;2.08;0.13;;;19.90;63.40;;;;;;4973940;28;20562;-76
2023/03/27 08:56:20;;;;;;;1.17;0.10;;;19.90;63.40;;;;;;4973968;28;20056;-74
2023/03/27 08:58:48;;;;;;;2.92;0.70;;;19.90;63.30;;;;;;4973127;28;20042;-73
2023/03/27 09:01:23;;;;;;;1.17;0.70;;;20.00;63.20;;;;;;4974195;28;20094;-74
2023/03/27 09:03:56;;;;;;;1.20;0.10;;;20.00;63.70;;;;;;4973939;28;20090;-74
2023/03/27 09:06:26;;;;;;;1.20;0.70;;;20.10;63.00;;;;;;4991284;28;20053;-73
2023/03/27 09:09:05;;;;;;;1.15;0.50;;;20.10;62.90;;;;;;4991154;28;20486;-73
2023/03/27 09:11:42;;;;;;;1.98;0.20;;;20.20;62.80;;;;;;4973924;28;20065;-73
2023/03/27 09:14:19;;;;;;;1.65;0.60;;;20.20;62.60;;;;;;4974038;28;20050;-74
2023/03/27 09:16:49;;;;;;;1.05;0.10;;;20.30;62.50;;;;;;4991016;28;20058;-73
2023/03/27 09:19:27;;;;;;;1.02;0.10;;;20.40;62.40;;;;;;4991117;28;20062;-73
2023/03/27 09:22:00;;;;;;;1.48;0.60;;;20.60;62.40;;;;;;4973670;28;20073;-74
2023/03/27 09:24:31;;;;;;;1.30;0.68;;;20.60;62.10;;;;;;4973415;28;20054;-74
2023/03/27 09:27:05;;;;;;;1.58;0.93;;;20.70;62.00;;;;;;4990619;28;20439;-74
2023/03/27 09:29:38;;;;;;;2.53;0.77;;;20.80;61.90;;;;;;4973392;28;20415;-74
2023/03/27 09:32:12;;;;;;;1.58;0.55;;;20.80;61.90;;;;;;4990824;28;20099;-74
2023/03/27 09:34:39;;;;;;;1.23;0.73;;;20.80;61.80;;;;;;4973719;28;20073;-75
2023/03/27 09:37:11;;;;;;;1.70;0.60;;;20.80;61.80;;;;;;4973657;28;20062;-75
2023/03/27 09:39:45;;;;;;;1.88;0.63;;;20.80;61.80;;;;;;4973477;28;20152;-75
2023/03/27 09:42:18;;;;;;;2.55;0.90;;;20.80;61.90;;;;;;4973425;28;20057;-75
2023/03/27 09:44:49;;;;;;;2.10;0.60;;;20.70;62.00;;;;;;4973558;28;20057;-75
2023/03/27 09:47:21;;;;;;;1.25;0.55;;;20.70;62.00;;;;;;4990575;28;20053;-75
2023/03/27 09:49:53;;;;;;;2.03;0.55;;;20.80;62.10;;;;;;4990941;28;20061;-75
2023/03/27 09:52:36;;;;;;;2.00;0.40;;;20.70;62.00;;;;;;4990685;28;20434;-74
2023/03/27 09:55:25;;;;;;;1.77;0.68;;;20.70;62.10;;;;;;4972487;28;20057;-75
2023/03/27 09:57:57;;;;;;;1.60;0.80;;;20.70;62.10;;;;;;4973976;28;20054;-75
2023/03/27 10:00:31;;;;;;;2.25;0.90;;;20.70;62.10;;;;;;4990763;28;20050;-75
2023/03/27 10:03:04;;;;;;;2.30;0.60;;;20.70;62.10;;;;;;4990884;28;20055;-74
2023/03/27 10:05:32;;;;;;;2.35;0.75;;;20.70;62.10;;;;;;4990715;28;20046;-74
2023/03/27 10:08:00;;;;;;;2.00;0.50;;;20.70;62.10;;;;;;4991430;28;20062;-78
2023/03/27 10:10:31;;;;;;;1.60;0.60;;;20.70;62.20;;;;;;4993668;28;20070;-76
2023/03/27 10:13:03;;;;;;;1.20;0.47;;;20.60;62.20;;;;;;4977925;28;20053;-74
2023/03/27 10:15:35;;;;;;;1.23;0.73;;;20.60;62.30;;;;;;4977828;28;20469;-75
2023/03/27 10:21:21;;;;;;;1.85;0.55;;;20.60;62.40;;;;;;5002352;28;20584;-74
2023/03/27 10:24:04;;;;;;;1.88;0.68;;;20.50;62.50;;;;;;5010479;28;20490;-75
2023/03/27 10:26:34;;;;;;;1.15;0.50;;;20.50;62.60;;;;;;5007245;28;20065;-77
2023/03/27 10:37:25;;;;;;;1.33;0.60;;;20.40;62.60;;;;;;5248562;23;20052;-76
2023/03/27 10:39:55;;;;;;;1.10;0.57;;;20.40;62.70;;;;;;5021887;28;20092;-74
2023/03/27 10:42:27;;;;;;;1.15;0.68;;;20.40;62.80;;;;;;5014397;28;20501;-74
2023/03/27 10:44:56;;;;;;;1.55;0.70;;;20.40;62.80;;;;;;5031796;28;20053;-75
2023/03/27 10:47:29;;;;;;;;;;;20.40;62.90;;;;;;5016240;28;20049;-75
2023/03/27 10:50:10;;;;;;;1.67;0.70;;;20.40;63.20;;;;;;5014052;28;19932;-72
2023/03/27 10:52:50;;;;;;;0.93;0.50;;;20.40;63.00;;;;;;5031015;28;20062;-75
2023/03/27 10:55:35;;;;;;;2.42;0.60;;;20.40;63.00;;;;;;5031543;28;20060;-73
2023/03/27 10:58:22;;;;;;;2.00;0.63;;;20.30;63.00;;;;;;5023998;28;20072;-73
2023/03/27 11:00:54;;;;;;;1.00;0.80;;;20.30;63.10;;;;;;5028476;28;20049;-73
2023/03/27 11:09:57;;;;;;;1.17;0.60;;;20.30;63.10;;;;;;5006522;28;20053;-67
2023/03/27 11:12:26;;;;;;;2.47;0.47;;;20.30;63.10;;;;;;5008767;28;20060;-67
2023/03/27 11:15:00;;;;;;;1.23;0.57;;;20.40;63.10;;;;;;4990804;28;20054;-67
2023/03/27 11:17:32;;;;;;;1.83;0.60;;;20.40;63.10;;;;;;4987244;28;20069;-67
2023/03/27 11:20:06;;;;;;;2.13;0.50;;;20.40;63.10;;;;;;4992976;28;20053;-66
2023/03/27 11:22:38;;;;;;;1.42;0.68;;;20.50;63.10;;;;;;5008884;28;20050;-66
2023/03/27 11:25:13;;;;;;;1.35;0.50;;;20.50;63.00;;;;;;5007696;28;20458;-67
2023/03/27 11:27:44;;;;;;;2.40;0.70;;;20.50;63.00;;;;;;5009724;28;20521;-67
2023/03/27 11:34:04;;;;;;;1.63;0.52;;;20.50;63.00;;;;;;5021808;23;20076;-67
2023/03/27 11:36:42;;;;;;;1.88;0.43;;;20.50;62.90;;;;;;4992835;28;20061;-67
2023/03/27 11:39:16;;;;;;;2.03;0.52;;;20.60;62.90;;;;;;4975379;28;20054;-67
2023/03/27 11:41:47;;;;;;;1.33;0.60;;;20.60;62.90;;;;;;4992867;28;20057;-67
2023/03/27 11:44:14;;;;;;;1.55;0.80;;;20.60;62.90;;;;;;4992588;28;20511;-67
2023/03/27 11:46:56;;;;;;;1.52;0.10;;;20.60;62.90;;;;;;4975348;28;20050;-67
2023/03/27 11:49:37;;;;;;;1.40;0.60;;;20.60;62.90;;;;;;4992314;28;20050;-67
2023/03/27 11:52:12;;;;;;;1.00;0.40;;;20.60;62.90;;;;;;4975344;28;20058;-67
2023/03/27 11:54:55;;;;;;;1.65;0.52;;;20.50;62.90;;;;;;4992535;28;20149;-67
2023/03/27 11:57:24;;;;;;;1.40;0.85;;;20.60;63.00;;;;;;4992444;28;20494;-66
2023/03/27 12:00:16;;;;;;;1.40;0.70;;;20.50;62.90;;;;;;4974972;28;20086;-67
2023/03/27 12:03:08;;;;;;;1.27;0.55;;;20.50;62.90;;;;;;4992309;28;20101;-67
2023/03/27 12:05:47;;;;;;;0.73;0.00;;;20.50;63.50;;;;;;4975203;28;20063;-67
2023/03/27 12:08:21;;;;;;;0.80;0.10;;;20.60;62.90;;;;;;4992285;28;20514;-67
2023/03/27 12:10:51;;;;;;;1.52;0.63;;;20.60;62.90;;;;;;4992369;28;20463;-67
2023/03/27 12:13:52;;;;;;;1.83;0.60;;;20.50;62.90;;;;;;4973371;28;20046;-67
2023/03/27 12:16:43;;;;;;;1.27;0.40;;;20.50;62.90;;;;;;4975095;28;20097;-67
2023/03/27 12:19:29;;;;;;;1.05;0.45;;;20.50;62.90;;;;;;4992353;28;20061;-67
2023/03/27 12:22:10;;;;;;;2.05;0.60;;;20.50;62.90;;;;;;4992368;28;20050;-67
2023/03/27 12:24:46;;;;;;;1.60;0.47;;;20.50;62.90;;;;;;4974712;28;20054;-67
2023/03/27 12:27:46;;;;;;;1.10;0.10;;;20.50;62.90;;;;;;4974370;28;20082;-68
2023/03/27 12:30:26;;;;;;;1.70;0.63;;;20.50;62.80;;;;;;4974590;28;20137;-67
2023/03/27 12:33:16;;;;;;;2.05;1.10;;;20.50;62.80;;;;;;4974310;28;20057;-67
2023/03/27 12:35:46;;;;;;;2.30;0.63;;;20.50;62.70;;;;;;4991595;28;20047;-67
2023/03/27 12:38:22;;;;;;;1.50;0.57;;;20.60;63.30;;;;;;4974476;28;20054;-68
2023/03/27 12:41:01;;;;;;;1.70;0.50;;;20.60;62.70;;;;;;4991789;28;20058;-68
2023/03/27 12:43:30;;;;;;;1.13;0.55;;;20.60;62.60;;;;;;4991684;28;20574;-67
2023/03/27 12:46:15;;;;;;;1.50;0.70;;;20.70;62.60;;;;;;4973897;28;20054;-67
2023/03/27 12:48:56;;;;;;;1.45;0.82;;;20.70;63.20;;;;;;4991515;28;20821;-67
2023/03/27 12:51:37;;;;;;;1.98;0.60;;;20.70;62.50;;;;;;4974447;28;20051;-67
2023/03/27 12:54:24;;;;;;;1.02;0.63;;;20.70;62.50;;;;;;4991140;28;20542;-67
2023/03/27 12:56:58;;;;;;;1.70;0.50;;;20.80;62.50;;;;;;4974025;28;20050;-67
2023/03/27 12:59:28;;;;;;;1.75;0.10;;;20.80;62.50;;;;;;4991696;28;20055;-67
2023/03/27 13:02:24;;;;;;;1.77;0.10;;;20.80;62.40;;;;;;4991549;28;20057;-67
2023/03/27 13:05:20;;;;;;;1.63;0.60;;;20.80;62.40;;;;;;4952852;28;20078;-67
2023/03/27 13:07:55;;;;;;;2.45;0.68;;;20.80;62.40;;;;;;4973485;28;20047;-67
2023/03/27 13:10:38;;;;;;;1.50;0.73;;;20.80;62.40;;;;;;4971958;28;20061;-67
2023/03/27 13:13:31;;;;;;;2.85;0.68;;;20.90;62.50;;;;;;4960371;28;20483;-67
2023/03/27 13:16:12;;;;;;;1.35;0.60;;;20.90;62.50;;;;;;4991127;28;20058;-67
2023/03/27 13:18:54;;;;;;;1.52;0.60;;;20.90;62.40;;;;;;4991430;28;20058;-67
2023/03/27 13:21:32;;;;;;;0.88;0.20;;;20.90;62.50;;;;;;4991028;28;20070;-67
2023/03/27 13:24:15;;;;;;;1.17;0.10;;;20.90;62.50;;;;;;4990904;28;20177;-67
2023/03/27 13:26:58;;;;;;;1.25;0.60;;;20.80;62.50;;;;;;4990957;28;20849;-67
2023/03/27 13:29:30;;;;;;;2.05;0.68;;;20.80;62.50;;;;;;4973478;28;20461;-67
2023/03/27 13:32:30;;;;;;;1.55;0.68;;;20.80;62.50;;;;;;4973023;28;20360;-67
2023/03/27 13:35:25;;;;;;;1.13;0.47;;;20.80;62.50;;;;;;4990667;28;20105;-67
2023/03/27 13:37:56;;;;;;;1.50;0.50;;;20.70;62.60;;;;;;4990931;28;20569;-67
2023/03/27 13:40:28;;;;;;;1.15;0.52;;;20.70;62.70;;;;;;4991058;28;20527;-67
2023/03/27 13:43:11;;;;;;;1.90;0.70;;;20.70;62.70;;;;;;4991128;28;20050;-67